sensor_id;sensor_type;location;lat;lon;timestamp;temperature;humidity
68924;DHT22;55961;52.156;20.942;2023-08-07T00:00:47;16.40;80.30
68924;DHT22;55961;52.156;20.942;2023-08-07T00:03:32;16.40;80.40
68924;DHT22;55961;52.156;20.942;2023-08-07T00:05:58;16.40;80.90
68924;DHT22;55961;52.156;20.942;2023-08-07T00:08:24;16.40;81.30
68924;DHT22;55961;52.156;20.942;2023-08-07T00:10:50;16.40;81.40
68924;DHT22;55961;52.156;20.942;2023-08-07T00:13:16;16.30;81.40
68924;DHT22;55961;52.156;20.942;2023-08-07T00:15:42;16.30;81.40
68924;DHT22;55961;52.156;20.942;2023-08-07T00:18:08;16.30;81.40
68924;DHT22;55961;52.156;20.942;2023-08-07T00:20:34;16.30;81.20
68924;DHT22;55961;52.156;20.942;2023-08-07T00:23:01;16.20;81.00
68924;DHT22;55961;52.156;20.942;2023-08-07T00:25:27;16.20;81.00
68924;DHT22;55961;52.156;20.942;2023-08-07T00:27:53;16.20;80.90
68924;DHT22;55961;52.156;20.942;2023-08-07T00:30:19;16.20;81.00
68924;DHT22;55961;52.156;20.942;2023-08-07T00:32:45;16.10;80.90
68924;DHT22;55961;52.156;20.942;2023-08-07T00:35:11;16.10;81.20
68924;DHT22;55961;52.156;20.942;2023-08-07T00:37:37;16.10;81.10
68924;DHT22;55961;52.156;20.942;2023-08-07T00:40:03;16.10;81.00
68924;DHT22;55961;52.156;20.942;2023-08-07T00:42:29;16.10;80.90
68924;DHT22;55961;52.156;20.942;2023-08-07T00:44:54;16.10;81.10
68924;DHT22;55961;52.156;20.942;2023-08-07T00:47:21;16.10;81.10
68924;DHT22;55961;52.156;20.942;2023-08-07T00:49:48;16.10;80.90
68924;DHT22;55961;52.156;20.942;2023-08-07T00:52:14;16.10;80.80
68924;DHT22;55961;52.156;20.942;2023-08-07T00:54:40;16.10;80.70
68924;DHT22;55961;52.156;20.942;2023-08-07T00:57:13;16.10;80.50
68924;DHT22;55961;52.156;20.942;2023-08-07T00:59:40;16.10;80.30
68924;DHT22;55961;52.156;20.942;2023-08-07T01:02:08;16.10;80.30
68924;DHT22;55961;52.156;20.942;2023-08-07T01:04:34;16.10;80.20
68924;DHT22;55961;52.156;20.942;2023-08-07T01:07:00;16.00;80.30
68924;DHT22;55961;52.156;20.942;2023-08-07T01:09:26;16.00;80.20
68924;DHT22;55961;52.156;20.942;2023-08-07T01:19:32;16.00;80.00
68924;DHT22;55961;52.156;20.942;2023-08-07T01:22:06;16.00;79.60
68924;DHT22;55961;52.156;20.942;2023-08-07T01:24:33;16.00;79.70
68924;DHT22;55961;52.156;20.942;2023-08-07T01:27:46;16.00;79.30
68924;DHT22;55961;52.156;20.942;2023-08-07T01:30:13;15.90;79.60
68924;DHT22;55961;52.156;20.942;2023-08-07T01:35:41;15.90;80.20
68924;DHT22;55961;52.156;20.942;2023-08-07T01:38:09;15.90;80.40
68924;DHT22;55961;52.156;20.942;2023-08-07T01:40:37;15.90;80.60
68924;DHT22;55961;52.156;20.942;2023-08-07T01:43:05;15.90;80.60
68924;DHT22;55961;52.156;20.942;2023-08-07T01:45:30;15.90;80.80
68924;DHT22;55961;52.156;20.942;2023-08-07T01:47:57;15.90;80.90
68924;DHT22;55961;52.156;20.942;2023-08-07T01:50:24;15.80;80.70
68924;DHT22;55961;52.156;20.942;2023-08-07T01:52:50;15.80;80.80
68924;DHT22;55961;52.156;20.942;2023-08-07T01:55:18;15.80;81.40
68924;DHT22;55961;52.156;20.942;2023-08-07T01:57:44;15.80;81.60
68924;DHT22;55961;52.156;20.942;2023-08-07T02:00:11;15.80;81.80
68924;DHT22;55961;52.156;20.942;2023-08-07T02:02:37;15.70;82.10
68924;DHT22;55961;52.156;20.942;2023-08-07T02:05:03;15.70;81.90
68924;DHT22;55961;52.156;20.942;2023-08-07T02:07:30;15.70;82.10
68924;DHT22;55961;52.156;20.942;2023-08-07T02:09:57;15.70;82.10
68924;DHT22;55961;52.156;20.942;2023-08-07T02:12:23;15.70;81.60
68924;DHT22;55961;52.156;20.942;2023-08-07T02:14:51;15.70;81.70
68924;DHT22;55961;52.156;20.942;2023-08-07T02:17:17;15.70;81.50
68924;DHT22;55961;52.156;20.942;2023-08-07T02:19:43;15.70;81.50
68924;DHT22;55961;52.156;20.942;2023-08-07T02:22:09;15.60;81.60
68924;DHT22;55961;52.156;20.942;2023-08-07T02:24:35;15.60;81.70
68924;DHT22;55961;52.156;20.942;2023-08-07T02:27:01;15.60;81.90
68924;DHT22;55961;52.156;20.942;2023-08-07T02:29:27;15.60;81.40
68924;DHT22;55961;52.156;20.942;2023-08-07T02:31:53;15.60;81.30
68924;DHT22;55961;52.156;20.942;2023-08-07T02:34:18;15.60;81.40
68924;DHT22;55961;52.156;20.942;2023-08-07T02:36:44;15.60;81.20
68924;DHT22;55961;52.156;20.942;2023-08-07T02:39:10;15.60;80.90
68924;DHT22;55961;52.156;20.942;2023-08-07T02:41:36;15.60;80.70
68924;DHT22;55961;52.156;20.942;2023-08-07T02:44:02;15.60;80.70
68924;DHT22;55961;52.156;20.942;2023-08-07T02:46:28;15.60;80.80
68924;DHT22;55961;52.156;20.942;2023-08-07T02:48:54;15.60;80.80
68924;DHT22;55961;52.156;20.942;2023-08-07T02:51:20;15.60;81.10
68924;DHT22;55961;52.156;20.942;2023-08-07T02:53:46;15.60;81.60
68924;DHT22;55961;52.156;20.942;2023-08-07T02:56:12;15.50;82.20
68924;DHT22;55961;52.156;20.942;2023-08-07T02:58:37;15.50;82.20
68924;DHT22;55961;52.156;20.942;2023-08-07T03:01:04;15.50;82.10
68924;DHT22;55961;52.156;20.942;2023-08-07T03:03:33;15.50;82.70
68924;DHT22;55961;52.156;20.942;2023-08-07T03:05:59;15.40;82.90
68924;DHT22;55961;52.156;20.942;2023-08-07T03:08:25;15.40;82.80
68924;DHT22;55961;52.156;20.942;2023-08-07T03:10:55;15.40;83.10
68924;DHT22;55961;52.156;20.942;2023-08-07T03:13:22;15.30;82.90
68924;DHT22;55961;52.156;20.942;2023-08-07T03:15:48;15.30;82.60
68924;DHT22;55961;52.156;20.942;2023-08-07T03:18:18;15.30;81.50
68924;DHT22;55961;52.156;20.942;2023-08-07T03:20:55;15.30;81.20
68924;DHT22;55961;52.156;20.942;2023-08-07T03:23:22;15.30;81.00
68924;DHT22;55961;52.156;20.942;2023-08-07T03:25:50;15.30;81.20
68924;DHT22;55961;52.156;20.942;2023-08-07T03:28:17;15.30;81.10
68924;DHT22;55961;52.156;20.942;2023-08-07T03:30:43;15.20;81.60
68924;DHT22;55961;52.156;20.942;2023-08-07T03:33:10;15.20;81.70
68924;DHT22;55961;52.156;20.942;2023-08-07T03:35:36;15.20;82.10
68924;DHT22;55961;52.156;20.942;2023-08-07T03:38:05;15.20;81.90
68924;DHT22;55961;52.156;20.942;2023-08-07T03:40:31;15.20;81.90
68924;DHT22;55961;52.156;20.942;2023-08-07T03:42:57;15.20;82.30
68924;DHT22;55961;52.156;20.942;2023-08-07T03:45:23;15.20;82.40
68924;DHT22;55961;52.156;20.942;2023-08-07T03:47:49;15.20;82.40
68924;DHT22;55961;52.156;20.942;2023-08-07T03:50:15;15.20;82.50
68924;DHT22;55961;52.156;20.942;2023-08-07T03:52:40;15.20;82.20
68924;DHT22;55961;52.156;20.942;2023-08-07T03:55:07;15.20;81.90
68924;DHT22;55961;52.156;20.942;2023-08-07T03:57:32;15.20;81.60
68924;DHT22;55961;52.156;20.942;2023-08-07T03:59:58;15.30;81.10
68924;DHT22;55961;52.156;20.942;2023-08-07T04:02:25;15.30;80.10
68924;DHT22;55961;52.156;20.942;2023-08-07T04:04:51;15.30;79.80
68924;DHT22;55961;52.156;20.942;2023-08-07T04:07:17;15.30;79.20
68924;DHT22;55961;52.156;20.942;2023-08-07T04:09:43;15.40;79.00
68924;DHT22;55961;52.156;20.942;2023-08-07T04:12:08;15.40;78.80
68924;DHT22;55961;52.156;20.942;2023-08-07T04:14:38;15.40;78.70
68924;DHT22;55961;52.156;20.942;2023-08-07T04:17:04;15.40;78.60
68924;DHT22;55961;52.156;20.942;2023-08-07T04:19:30;15.40;78.20
68924;DHT22;55961;52.156;20.942;2023-08-07T04:21:56;15.50;77.70
68924;DHT22;55961;52.156;20.942;2023-08-07T04:24:22;15.50;77.30
68924;DHT22;55961;52.156;20.942;2023-08-07T04:26:48;15.50;77.20
68924;DHT22;55961;52.156;20.942;2023-08-07T04:29:14;15.50;77.30
68924;DHT22;55961;52.156;20.942;2023-08-07T04:31:39;15.50;76.90
68924;DHT22;55961;52.156;20.942;2023-08-07T04:34:06;15.60;76.70
68924;DHT22;55961;52.156;20.942;2023-08-07T04:36:31;15.60;76.10
68924;DHT22;55961;52.156;20.942;2023-08-07T04:38:57;15.60;76.20
68924;DHT22;55961;52.156;20.942;2023-08-07T04:41:23;15.60;75.70
68924;DHT22;55961;52.156;20.942;2023-08-07T04:43:50;15.60;75.70
68924;DHT22;55961;52.156;20.942;2023-08-07T04:46:15;15.60;75.50
68924;DHT22;55961;52.156;20.942;2023-08-07T04:48:42;15.60;75.40
68924;DHT22;55961;52.156;20.942;2023-08-07T04:51:07;15.60;75.50
68924;DHT22;55961;52.156;20.942;2023-08-07T04:53:34;15.60;75.50
68924;DHT22;55961;52.156;20.942;2023-08-07T04:56:00;15.60;75.70
68924;DHT22;55961;52.156;20.942;2023-08-07T04:58:26;15.60;75.90
68924;DHT22;55961;52.156;20.942;2023-08-07T05:00:55;15.60;76.10
68924;DHT22;55961;52.156;20.942;2023-08-07T05:03:22;15.70;76.00
68924;DHT22;55961;52.156;20.942;2023-08-07T05:05:48;15.70;76.30
68924;DHT22;55961;52.156;20.942;2023-08-07T05:08:14;15.70;76.10
68924;DHT22;55961;52.156;20.942;2023-08-07T05:10:40;15.70;76.20
68924;DHT22;55961;52.156;20.942;2023-08-07T05:13:06;15.70;76.20
68924;DHT22;55961;52.156;20.942;2023-08-07T05:15:32;15.70;76.30
68924;DHT22;55961;52.156;20.942;2023-08-07T05:17:58;15.80;76.10
68924;DHT22;55961;52.156;20.942;2023-08-07T05:20:24;15.80;75.90
68924;DHT22;55961;52.156;20.942;2023-08-07T05:22:50;15.80;76.10
68924;DHT22;55961;52.156;20.942;2023-08-07T05:25:16;15.90;75.90
68924;DHT22;55961;52.156;20.942;2023-08-07T05:27:43;15.90;76.20
68924;DHT22;55961;52.156;20.942;2023-08-07T05:30:09;15.90;76.30
68924;DHT22;55961;52.156;20.942;2023-08-07T05:32:36;15.90;76.20
68924;DHT22;55961;52.156;20.942;2023-08-07T05:35:05;15.90;76.30
68924;DHT22;55961;52.156;20.942;2023-08-07T05:37:33;15.90;76.10
68924;DHT22;55961;52.156;20.942;2023-08-07T05:39:58;15.90;76.40
68924;DHT22;55961;52.156;20.942;2023-08-07T05:42:25;16.00;76.30
68924;DHT22;55961;52.156;20.942;2023-08-07T05:44:50;16.00;75.90
68924;DHT22;55961;52.156;20.942;2023-08-07T05:47:16;16.00;75.90
68924;DHT22;55961;52.156;20.942;2023-08-07T05:49:42;16.10;75.70
68924;DHT22;55961;52.156;20.942;2023-08-07T05:52:08;16.10;75.40
68924;DHT22;55961;52.156;20.942;2023-08-07T05:54:34;16.00;76.10
68924;DHT22;55961;52.156;20.942;2023-08-07T05:57:01;16.00;75.60
68924;DHT22;55961;52.156;20.942;2023-08-07T05:59:26;16.00;75.70
68924;DHT22;55961;52.156;20.942;2023-08-07T06:01:53;16.00;76.10
68924;DHT22;55961;52.156;20.942;2023-08-07T06:04:21;15.90;76.80
68924;DHT22;55961;52.156;20.942;2023-08-07T06:06:47;16.00;76.40
68924;DHT22;55961;52.156;20.942;2023-08-07T06:09:14;15.90;76.20
68924;DHT22;55961;52.156;20.942;2023-08-07T06:11:43;15.90;75.90
68924;DHT22;55961;52.156;20.942;2023-08-07T06:14:09;15.90;75.70
68924;DHT22;55961;52.156;20.942;2023-08-07T06:16:35;15.90;75.90
68924;DHT22;55961;52.156;20.942;2023-08-07T06:19:01;15.90;75.60
68924;DHT22;55961;52.156;20.942;2023-08-07T06:21:27;15.90;74.80
68924;DHT22;55961;52.156;20.942;2023-08-07T06:23:54;15.90;74.00
68924;DHT22;55961;52.156;20.942;2023-08-07T06:26:20;15.90;73.10
68924;DHT22;55961;52.156;20.942;2023-08-07T06:28:46;15.90;72.80
68924;DHT22;55961;52.156;20.942;2023-08-07T06:31:12;16.00;73.60
68924;DHT22;55961;52.156;20.942;2023-08-07T06:33:38;15.90;74.00
68924;DHT22;55961;52.156;20.942;2023-08-07T06:36:06;15.90;74.20
68924;DHT22;55961;52.156;20.942;2023-08-07T06:38:32;15.90;75.20
68924;DHT22;55961;52.156;20.942;2023-08-07T06:40:58;15.90;75.50
68924;DHT22;55961;52.156;20.942;2023-08-07T06:43:23;15.80;76.10
68924;DHT22;55961;52.156;20.942;2023-08-07T06:45:51;15.80;75.10
68924;DHT22;55961;52.156;20.942;2023-08-07T06:48:18;15.80;74.80
68924;DHT22;55961;52.156;20.942;2023-08-07T06:50:46;15.80;75.00
68924;DHT22;55961;52.156;20.942;2023-08-07T06:53:12;15.80;75.10
68924;DHT22;55961;52.156;20.942;2023-08-07T06:55:38;15.80;74.70
68924;DHT22;55961;52.156;20.942;2023-08-07T06:58:03;15.80;74.30
68924;DHT22;55961;52.156;20.942;2023-08-07T07:00:29;15.80;74.10
68924;DHT22;55961;52.156;20.942;2023-08-07T07:02:55;15.90;73.50
68924;DHT22;55961;52.156;20.942;2023-08-07T07:05:21;15.90;73.30
68924;DHT22;55961;52.156;20.942;2023-08-07T07:07:47;15.90;73.50
68924;DHT22;55961;52.156;20.942;2023-08-07T07:10:13;16.00;72.90
68924;DHT22;55961;52.156;20.942;2023-08-07T07:12:39;16.00;72.40
68924;DHT22;55961;52.156;20.942;2023-08-07T07:15:05;16.10;72.80
68924;DHT22;55961;52.156;20.942;2023-08-07T07:17:31;16.10;72.80
68924;DHT22;55961;52.156;20.942;2023-08-07T07:19:57;16.10;72.00
68924;DHT22;55961;52.156;20.942;2023-08-07T07:22:23;16.20;71.90
68924;DHT22;55961;52.156;20.942;2023-08-07T07:24:49;16.20;72.10
68924;DHT22;55961;52.156;20.942;2023-08-07T07:27:15;16.20;71.80
68924;DHT22;55961;52.156;20.942;2023-08-07T07:29:41;16.20;71.40
68924;DHT22;55961;52.156;20.942;2023-08-07T07:32:07;16.20;71.70
68924;DHT22;55961;52.156;20.942;2023-08-07T07:34:34;16.20;71.60
68924;DHT22;55961;52.156;20.942;2023-08-07T07:36:59;16.20;71.20
68924;DHT22;55961;52.156;20.942;2023-08-07T07:39:25;16.20;71.10
68924;DHT22;55961;52.156;20.942;2023-08-07T07:41:51;16.20;70.60
68924;DHT22;55961;52.156;20.942;2023-08-07T07:44:17;16.20;70.60
68924;DHT22;55961;52.156;20.942;2023-08-07T07:46:43;16.20;70.30
68924;DHT22;55961;52.156;20.942;2023-08-07T07:49:09;16.20;70.40
68924;DHT22;55961;52.156;20.942;2023-08-07T07:51:35;16.20;70.30
68924;DHT22;55961;52.156;20.942;2023-08-07T07:54:03;16.30;70.30
68924;DHT22;55961;52.156;20.942;2023-08-07T07:56:28;16.30;70.30
68924;DHT22;55961;52.156;20.942;2023-08-07T07:58:55;16.30;70.70
68924;DHT22;55961;52.156;20.942;2023-08-07T08:01:22;16.30;70.80
68924;DHT22;55961;52.156;20.942;2023-08-07T08:03:48;16.30;70.60
68924;DHT22;55961;52.156;20.942;2023-08-07T08:06:13;16.30;70.80
68924;DHT22;55961;52.156;20.942;2023-08-07T08:08:40;16.30;71.10
68924;DHT22;55961;52.156;20.942;2023-08-07T08:11:05;16.40;71.30
68924;DHT22;55961;52.156;20.942;2023-08-07T08:13:31;16.40;70.60
68924;DHT22;55961;52.156;20.942;2023-08-07T08:15:57;16.50;70.10
68924;DHT22;55961;52.156;20.942;2023-08-07T08:18:23;16.70;69.40
68924;DHT22;55961;52.156;20.942;2023-08-07T08:20:49;16.80;69.40
68924;DHT22;55961;52.156;20.942;2023-08-07T08:23:15;16.90;68.40
68924;DHT22;55961;52.156;20.942;2023-08-07T08:25:41;16.90;68.10
68924;DHT22;55961;52.156;20.942;2023-08-07T08:28:07;17.00;67.90
68924;DHT22;55961;52.156;20.942;2023-08-07T08:30:33;17.00;68.20
68924;DHT22;55961;52.156;20.942;2023-08-07T08:32:59;17.10;68.30
68924;DHT22;55961;52.156;20.942;2023-08-07T08:35:25;17.10;68.20
68924;DHT22;55961;52.156;20.942;2023-08-07T08:37:51;17.20;67.90
68924;DHT22;55961;52.156;20.942;2023-08-07T08:40:17;17.30;67.60
68924;DHT22;55961;52.156;20.942;2023-08-07T08:42:45;17.30;66.90
68924;DHT22;55961;52.156;20.942;2023-08-07T08:45:13;17.40;66.30
68924;DHT22;55961;52.156;20.942;2023-08-07T08:47:41;17.50;66.20
68924;DHT22;55961;52.156;20.942;2023-08-07T08:50:09;17.50;66.10
68924;DHT22;55961;52.156;20.942;2023-08-07T08:52:40;17.60;66.30
68924;DHT22;55961;52.156;20.942;2023-08-07T08:55:06;17.60;65.70
68924;DHT22;55961;52.156;20.942;2023-08-07T08:57:33;17.70;65.40
68924;DHT22;55961;52.156;20.942;2023-08-07T09:00:00;17.80;65.00
68924;DHT22;55961;52.156;20.942;2023-08-07T09:02:27;17.80;64.60
68924;DHT22;55961;52.156;20.942;2023-08-07T09:04:53;17.80;65.20
68924;DHT22;55961;52.156;20.942;2023-08-07T09:07:20;18.00;64.80
68924;DHT22;55961;52.156;20.942;2023-08-07T09:09:46;18.10;63.30
68924;DHT22;55961;52.156;20.942;2023-08-07T09:12:26;18.30;62.70
68924;DHT22;55961;52.156;20.942;2023-08-07T09:14:58;18.50;61.30
68924;DHT22;55961;52.156;20.942;2023-08-07T09:17:32;18.70;60.50
68924;DHT22;55961;52.156;20.942;2023-08-07T09:20:00;18.80;59.70
68924;DHT22;55961;52.156;20.942;2023-08-07T09:22:26;19.00;59.30
68924;DHT22;55961;52.156;20.942;2023-08-07T09:24:52;19.20;59.10
68924;DHT22;55961;52.156;20.942;2023-08-07T09:27:18;19.30;59.30
68924;DHT22;55961;52.156;20.942;2023-08-07T09:29:44;19.50;58.90
68924;DHT22;55961;52.156;20.942;2023-08-07T09:32:12;19.70;58.70
68924;DHT22;55961;52.156;20.942;2023-08-07T09:34:42;19.80;57.10
68924;DHT22;55961;52.156;20.942;2023-08-07T09:37:09;20.00;57.30
68924;DHT22;55961;52.156;20.942;2023-08-07T09:39:35;20.10;55.60
68924;DHT22;55961;52.156;20.942;2023-08-07T09:42:03;20.20;56.00
68924;DHT22;55961;52.156;20.942;2023-08-07T09:44:38;20.20;56.20
68924;DHT22;55961;52.156;20.942;2023-08-07T09:47:16;20.20;54.90
68924;DHT22;55961;52.156;20.942;2023-08-07T09:49:42;20.20;55.50
68924;DHT22;55961;52.156;20.942;2023-08-07T09:52:10;20.20;55.60
68924;DHT22;55961;52.156;20.942;2023-08-07T09:54:39;20.10;55.30
68924;DHT22;55961;52.156;20.942;2023-08-07T09:57:06;20.00;54.90
68924;DHT22;55961;52.156;20.942;2023-08-07T09:59:33;19.90;55.50
68924;DHT22;55961;52.156;20.942;2023-08-07T10:02:00;19.80;55.70
68924;DHT22;55961;52.156;20.942;2023-08-07T10:04:30;19.80;56.10
68924;DHT22;55961;52.156;20.942;2023-08-07T10:06:57;19.80;57.10
68924;DHT22;55961;52.156;20.942;2023-08-07T10:09:23;19.90;56.10
68924;DHT22;55961;52.156;20.942;2023-08-07T10:11:50;20.00;56.80
68924;DHT22;55961;52.156;20.942;2023-08-07T10:14:17;20.00;56.30
68924;DHT22;55961;52.156;20.942;2023-08-07T10:16:43;20.10;56.70
68924;DHT22;55961;52.156;20.942;2023-08-07T10:19:10;20.30;56.30
68924;DHT22;55961;52.156;20.942;2023-08-07T10:21:39;20.50;55.70
68924;DHT22;55961;52.156;20.942;2023-08-07T10:24:06;20.60;54.90
68924;DHT22;55961;52.156;20.942;2023-08-07T10:26:35;20.50;54.40
68924;DHT22;55961;52.156;20.942;2023-08-07T10:29:06;20.50;55.30
68924;DHT22;55961;52.156;20.942;2023-08-07T10:31:36;20.50;54.40
68924;DHT22;55961;52.156;20.942;2023-08-07T10:34:03;20.50;55.00
68924;DHT22;55961;52.156;20.942;2023-08-07T10:36:33;20.50;55.50
68924;DHT22;55961;52.156;20.942;2023-08-07T10:39:22;20.60;54.50
68924;DHT22;55961;52.156;20.942;2023-08-07T10:41:52;20.70;54.10
68924;DHT22;55961;52.156;20.942;2023-08-07T10:44:27;20.90;54.00
68924;DHT22;55961;52.156;20.942;2023-08-07T10:46:57;21.00;52.20
68924;DHT22;55961;52.156;20.942;2023-08-07T10:49:38;21.00;51.70
68924;DHT22;55961;52.156;20.942;2023-08-07T10:52:13;21.00;51.70
68924;DHT22;55961;52.156;20.942;2023-08-07T10:54:46;20.90;51.30
68924;DHT22;55961;52.156;20.942;2023-08-07T10:57:15;20.90;52.30
68924;DHT22;55961;52.156;20.942;2023-08-07T11:00:00;20.90;51.30
68924;DHT22;55961;52.156;20.942;2023-08-07T11:02:31;20.80;51.50
68924;DHT22;55961;52.156;20.942;2023-08-07T11:04:58;20.80;51.60
68924;DHT22;55961;52.156;20.942;2023-08-07T11:07:26;20.80;51.90
68924;DHT22;55961;52.156;20.942;2023-08-07T11:09:52;20.70;52.70
68924;DHT22;55961;52.156;20.942;2023-08-07T11:12:19;20.70;53.10
68924;DHT22;55961;52.156;20.942;2023-08-07T11:14:46;20.80;52.30
68924;DHT22;55961;52.156;20.942;2023-08-07T11:17:12;20.90;52.00
68924;DHT22;55961;52.156;20.942;2023-08-07T11:19:38;21.10;52.00
68924;DHT22;55961;52.156;20.942;2023-08-07T11:22:05;21.20;51.00
68924;DHT22;55961;52.156;20.942;2023-08-07T11:24:31;21.30;50.90
68924;DHT22;55961;52.156;20.942;2023-08-07T11:26:57;21.50;50.70
68924;DHT22;55961;52.156;20.942;2023-08-07T11:29:24;21.70;49.50
68924;DHT22;55961;52.156;20.942;2023-08-07T11:31:51;21.80;49.50
68924;DHT22;55961;52.156;20.942;2023-08-07T11:34:18;21.90;49.70
68924;DHT22;55961;52.156;20.942;2023-08-07T11:36:45;22.00;49.10
68924;DHT22;55961;52.156;20.942;2023-08-07T11:39:12;22.10;49.70
68924;DHT22;55961;52.156;20.942;2023-08-07T11:41:38;22.10;49.00
68924;DHT22;55961;52.156;20.942;2023-08-07T11:44:04;22.20;49.30
68924;DHT22;55961;52.156;20.942;2023-08-07T11:46:30;22.30;49.30
68924;DHT22;55961;52.156;20.942;2023-08-07T11:48:56;22.50;49.30
68924;DHT22;55961;52.156;20.942;2023-08-07T11:51:22;22.60;49.30
68924;DHT22;55961;52.156;20.942;2023-08-07T11:53:49;22.70;47.80
68924;DHT22;55961;52.156;20.942;2023-08-07T11:56:15;22.80;47.70
68924;DHT22;55961;52.156;20.942;2023-08-07T11:58:46;22.80;46.60
68924;DHT22;55961;52.156;20.942;2023-08-07T12:01:23;22.90;47.50
68924;DHT22;55961;52.156;20.942;2023-08-07T12:03:52;23.00;46.70
68924;DHT22;55961;52.156;20.942;2023-08-07T12:06:19;22.80;46.60
68924;DHT22;55961;52.156;20.942;2023-08-07T12:08:48;22.70;47.60
68924;DHT22;55961;52.156;20.942;2023-08-07T12:11:14;22.50;47.30
68924;DHT22;55961;52.156;20.942;2023-08-07T12:13:44;22.40;47.60
68924;DHT22;55961;52.156;20.942;2023-08-07T12:16:12;22.30;48.30
68924;DHT22;55961;52.156;20.942;2023-08-07T12:18:49;22.10;48.70
68924;DHT22;55961;52.156;20.942;2023-08-07T12:21:18;22.00;48.40
68924;DHT22;55961;52.156;20.942;2023-08-07T12:23:45;22.00;48.60
68924;DHT22;55961;52.156;20.942;2023-08-07T12:26:14;21.90;49.20
68924;DHT22;55961;52.156;20.942;2023-08-07T12:28:40;21.80;49.10
68924;DHT22;55961;52.156;20.942;2023-08-07T12:31:06;21.70;49.50
68924;DHT22;55961;52.156;20.942;2023-08-07T12:33:35;21.70;49.60
68924;DHT22;55961;52.156;20.942;2023-08-07T12:36:01;21.60;49.50
68924;DHT22;55961;52.156;20.942;2023-08-07T12:38:28;21.50;49.90
68924;DHT22;55961;52.156;20.942;2023-08-07T12:40:55;21.50;50.00
68924;DHT22;55961;52.156;20.942;2023-08-07T12:43:21;21.50;50.70
68924;DHT22;55961;52.156;20.942;2023-08-07T12:45:47;21.50;50.50
68924;DHT22;55961;52.156;20.942;2023-08-07T12:48:13;21.50;50.40
68924;DHT22;55961;52.156;20.942;2023-08-07T12:50:39;21.60;50.50
68924;DHT22;55961;52.156;20.942;2023-08-07T12:53:06;21.70;50.00
68924;DHT22;55961;52.156;20.942;2023-08-07T12:55:32;21.80;48.50
68924;DHT22;55961;52.156;20.942;2023-08-07T12:57:58;21.80;49.30
68924;DHT22;55961;52.156;20.942;2023-08-07T13:00:24;21.90;48.60
68924;DHT22;55961;52.156;20.942;2023-08-07T13:02:51;22.10;47.00
68924;DHT22;55961;52.156;20.942;2023-08-07T13:05:19;22.20;47.60
68924;DHT22;55961;52.156;20.942;2023-08-07T13:07:46;22.40;47.10
68924;DHT22;55961;52.156;20.942;2023-08-07T13:10:14;22.60;45.20
68924;DHT22;55961;52.156;20.942;2023-08-07T13:12:43;22.70;45.60
68924;DHT22;55961;52.156;20.942;2023-08-07T13:15:11;22.70;45.90
68924;DHT22;55961;52.156;20.942;2023-08-07T13:17:39;22.80;45.30
68924;DHT22;55961;52.156;20.942;2023-08-07T13:20:06;22.80;45.30
68924;DHT22;55961;52.156;20.942;2023-08-07T13:22:42;22.70;44.90
68924;DHT22;55961;52.156;20.942;2023-08-07T13:25:09;22.60;45.00
68924;DHT22;55961;52.156;20.942;2023-08-07T13:27:35;22.60;45.00
68924;DHT22;55961;52.156;20.942;2023-08-07T13:30:03;22.50;45.50
68924;DHT22;55961;52.156;20.942;2023-08-07T13:32:29;22.40;45.80
68924;DHT22;55961;52.156;20.942;2023-08-07T13:34:55;22.30;46.00
68924;DHT22;55961;52.156;20.942;2023-08-07T13:37:21;22.20;46.60
68924;DHT22;55961;52.156;20.942;2023-08-07T13:39:47;22.10;46.60
68924;DHT22;55961;52.156;20.942;2023-08-07T13:42:15;22.10;47.40
68924;DHT22;55961;52.156;20.942;2023-08-07T13:44:41;22.10;46.80
68924;DHT22;55961;52.156;20.942;2023-08-07T13:47:07;22.00;47.00
68924;DHT22;55961;52.156;20.942;2023-08-07T13:49:34;21.90;47.20
68924;DHT22;55961;52.156;20.942;2023-08-07T13:52:01;21.80;47.50
68924;DHT22;55961;52.156;20.942;2023-08-07T13:54:33;21.70;47.90
68924;DHT22;55961;52.156;20.942;2023-08-07T13:56:59;21.60;47.80
68924;DHT22;55961;52.156;20.942;2023-08-07T13:59:25;21.50;48.30
68924;DHT22;55961;52.156;20.942;2023-08-07T14:01:51;21.40;48.50
68924;DHT22;55961;52.156;20.942;2023-08-07T14:04:18;21.30;49.00
68924;DHT22;55961;52.156;20.942;2023-08-07T14:06:44;21.20;49.30
68924;DHT22;55961;52.156;20.942;2023-08-07T14:09:11;21.20;49.90
68924;DHT22;55961;52.156;20.942;2023-08-07T14:11:37;21.10;50.10
68924;DHT22;55961;52.156;20.942;2023-08-07T14:14:04;21.10;50.00
68924;DHT22;55961;52.156;20.942;2023-08-07T14:16:29;21.00;50.20
68924;DHT22;55961;52.156;20.942;2023-08-07T14:18:57;21.00;50.40
68924;DHT22;55961;52.156;20.942;2023-08-07T14:21:23;21.00;50.60
68924;DHT22;55961;52.156;20.942;2023-08-07T14:23:49;21.00;50.90
68924;DHT22;55961;52.156;20.942;2023-08-07T14:26:15;21.00;50.80
68924;DHT22;55961;52.156;20.942;2023-08-07T14:28:42;21.10;50.80
68924;DHT22;55961;52.156;20.942;2023-08-07T14:31:08;21.10;51.00
68924;DHT22;55961;52.156;20.942;2023-08-07T14:33:35;21.10;50.90
68924;DHT22;55961;52.156;20.942;2023-08-07T14:36:02;21.10;51.20
68924;DHT22;55961;52.156;20.942;2023-08-07T14:38:29;21.10;51.20
68924;DHT22;55961;52.156;20.942;2023-08-07T14:40:55;21.20;51.30
68924;DHT22;55961;52.156;20.942;2023-08-07T14:43:21;21.10;52.80
68924;DHT22;55961;52.156;20.942;2023-08-07T14:45:48;21.10;53.70
68924;DHT22;55961;52.156;20.942;2023-08-07T14:48:15;21.00;54.30
68924;DHT22;55961;52.156;20.942;2023-08-07T14:50:41;20.90;54.70
68924;DHT22;55961;52.156;20.942;2023-08-07T14:53:07;20.90;54.60
68924;DHT22;55961;52.156;20.942;2023-08-07T14:55:34;20.90;54.70
68924;DHT22;55961;52.156;20.942;2023-08-07T14:57:59;21.00;54.60
68924;DHT22;55961;52.156;20.942;2023-08-07T15:00:26;21.10;54.20
68924;DHT22;55961;52.156;20.942;2023-08-07T15:02:51;21.20;53.90
68924;DHT22;55961;52.156;20.942;2023-08-07T15:05:17;21.30;53.00
68924;DHT22;55961;52.156;20.942;2023-08-07T15:07:44;21.40;51.60
68924;DHT22;55961;52.156;20.942;2023-08-07T15:10:10;21.50;51.00
68924;DHT22;55961;52.156;20.942;2023-08-07T15:12:36;21.50;51.20
68924;DHT22;55961;52.156;20.942;2023-08-07T15:15:04;21.50;51.10
68924;DHT22;55961;52.156;20.942;2023-08-07T15:17:32;21.50;50.90
68924;DHT22;55961;52.156;20.942;2023-08-07T15:19:59;21.60;49.70
68924;DHT22;55961;52.156;20.942;2023-08-07T15:22:25;21.60;48.90
68924;DHT22;55961;52.156;20.942;2023-08-07T15:24:51;21.50;49.60